Time;durP1;ratioP1;P1;durP2;ratioP2;P2;SDS_P1;SDS_P2;PMS_P1;PMS_P2;Temp;Humidity;BMP_temperature;BMP_pressure;BME280_temperature;BME280_humidity;BME280_pressure;Samples;Min_cycle;Max_cycle;Signal;HPM_P1;HPM_P2
2024/01/02 00:00:55;;;;;;;4.30;0.83;;;;;;;5.42;100.00;152753.69;4989407;28;20440;-78
2024/01/02 00:03:22;;;;;;;2.00;0.70;;;;;;;5.41;100.00;152751.09;5005675;28;20479;-78
2024/01/02 00:05:49;;;;;;;4.80;1.33;;;;;;;5.47;100.00;152766.59;4989060;28;20538;-78
2024/01/02 00:08:16;;;;;;;2.67;0.97;;;;;;;5.44;100.00;152758.84;4987485;28;20455;-78
2024/01/02 00:10:42;;;;;;;3.17;1.07;;;;;;;5.43;100.00;152756.25;5004530;28;20499;-78
2024/01/02 00:13:09;;;;;;;1.00;0.63;;;;;;;5.44;100.00;152758.84;4970002;28;20448;-78
2024/01/02 00:15:35;;;;;;;5.27;1.00;;;;;;;5.47;100.00;152766.59;4988261;28;20468;-78
2024/01/02 00:18:04;;;;;;;2.00;0.70;;;;;;;5.48;100.00;152769.19;5005605;28;20930;-77
2024/01/02 00:20:31;;;;;;;1.77;0.80;;;;;;;5.49;100.00;152773.03;5001716;28;20519;-78
2024/01/02 00:22:57;;;;;;;2.50;0.80;;;;;;;5.49;100.00;152771.72;4992491;28;20476;-78
2024/01/02 00:25:24;;;;;;;3.10;0.90;;;;;;;5.49;100.00;152771.72;5002831;28;20475;-78
2024/01/02 00:27:51;;;;;;;2.63;0.90;;;;;;;5.49;100.00;152771.72;5021404;28;20457;-78
2024/01/02 00:30:17;;;;;;;1.63;0.73;;;;;;;5.49;100.00;152771.72;4990477;28;20449;-78
2024/01/02 00:32:44;;;;;;;1.97;0.90;;;;;;;5.50;100.00;152774.31;5010508;28;21291;-78
2024/01/02 00:35:12;;;;;;;5.27;0.90;;;;;;;5.49;100.00;152771.72;4988441;28;20460;-78
2024/01/02 00:37:38;;;;;;;1.93;0.80;;;;;;;5.48;100.00;152769.19;5005342;28;20453;-78
2024/01/02 00:40:06;;;;;;;1.87;0.50;;;;;;;5.50;100.00;152774.31;4997289;28;20451;-78
2024/01/02 00:42:33;;;;;;;1.37;0.67;;;;;;;5.51;100.00;152776.88;4954848;28;20453;-78
2024/01/02 00:45:02;;;;;;;0.90;0.60;;;;;;;5.50;100.00;152775.63;4988043;28;20808;-78
2024/01/02 00:47:29;;;;;;;1.93;0.90;;;;;;;5.52;100.00;152779.47;4967292;28;20473;-78
2024/01/02 00:49:55;;;;;;;2.40;0.87;;;;;;;5.55;100.00;152787.22;4987430;28;20464;-77
2024/01/02 00:52:23;;;;;;;2.70;1.10;;;;;;;5.56;100.00;152788.50;4985830;28;20485;-78
2024/01/02 00:54:52;;;;;;;1.40;0.70;;;;;;;5.54;100.00;152785.91;4994664;28;20498;-77
2024/01/02 00:57:18;;;;;;;2.97;1.00;;;;;;;5.57;100.00;152791.06;4980326;28;20431;-77
2024/01/02 00:59:45;;;;;;;1.37;0.80;;;;;;;5.52;100.00;152780.78;4956104;28;20489;-78
2024/01/02 01:02:12;;;;;;;2.27;0.90;;;;;;;5.53;100.00;152782.06;4970496;28;20435;-77
2024/01/02 01:04:41;;;;;;;2.80;0.70;;;;;;;5.50;100.00;152775.63;4971675;28;20477;-77
2024/01/02 01:07:08;;;;;;;2.40;1.00;;;;;;;5.50;100.00;152774.31;4971093;28;20476;-77
2024/01/02 01:09:36;;;;;;;1.43;0.67;;;;;;;5.50;100.00;152775.63;4975343;28;20461;-78
2024/01/02 01:12:03;;;;;;;1.87;0.80;;;;;;;5.50;100.00;152774.31;4998685;28;21015;-78
2024/01/02 01:14:29;;;;;;;2.33;1.10;;;;;;;5.46;100.00;152764.00;4982196;28;20458;-78
2024/01/02 01:16:56;;;;;;;1.60;0.97;;;;;;;5.46;100.00;152765.28;4988461;28;20881;-78
2024/01/02 01:19:22;;;;;;;1.60;0.83;;;;;;;5.48;100.00;152769.19;4972511;28;20473;-78
2024/01/02 01:21:49;;;;;;;1.33;0.73;;;;;;;5.47;100.00;152766.59;4992628;28;20438;-77
2024/01/02 01:24:16;;;;;;;3.30;0.90;;;;;;;5.47;100.00;152767.88;4969510;28;20496;-78
2024/01/02 01:26:44;;;;;;;1.40;0.80;;;;;;;5.47;100.00;152766.59;4976617;28;20450;-78
2024/01/02 01:29:10;;;;;;;1.33;0.63;;;;;;;5.49;100.00;152771.72;4979967;28;20480;-77
2024/01/02 01:31:37;;;;;;;1.63;0.83;;;;;;;5.52;100.00;152779.47;4947264;28;20480;-77
2024/01/02 01:34:03;;;;;;;1.47;0.80;;;;;;;5.55;100.00;152787.22;4972627;28;20458;-77
2024/01/02 01:36:30;;;;;;;1.20;0.67;;;;;;;5.53;100.00;152782.06;5001009;28;20444;-77
2024/01/02 01:38:57;;;;;;;2.37;0.90;;;;;;;5.52;100.00;152780.78;4984682;28;20454;-77
2024/01/02 01:41:23;;;;;;;2.90;0.80;;;;;;;5.53;100.00;152782.06;4996736;28;20487;-77
2024/01/02 01:43:51;;;;;;;1.87;0.70;;;;;;;5.53;100.00;152782.06;4990453;28;20452;-77
2024/01/02 01:46:18;;;;;;;1.60;0.80;;;;;;;5.51;100.00;152776.88;5014336;28;20449;-78
2024/01/02 01:48:46;;;;;;;2.20;1.10;;;;;;;5.50;100.00;152775.63;5002249;28;20456;-78
2024/01/02 01:51:14;;;;;;;1.80;0.80;;;;;;;5.51;100.00;152778.19;5010826;28;20527;-78
2024/01/02 01:53:41;;;;;;;1.70;0.70;;;;;;;5.56;100.00;152789.75;4996345;28;20452;-78
2024/01/02 01:56:08;;;;;;;1.87;0.97;;;;;;;5.56;100.00;152788.50;4988272;28;20464;-78
2024/01/02 01:58:35;;;;;;;1.17;0.63;;;;;;;5.58;100.00;152793.66;4991160;28;20974;-78
2024/01/02 02:01:03;;;;;;;1.13;0.73;;;;;;;5.59;100.00;152797.50;4990510;28;20460;-78
2024/01/02 02:03:30;;;;;;;1.67;0.90;;;;;;;5.61;100.00;152801.41;5000302;28;20796;-78
2024/01/02 02:05:57;;;;;;;1.27;0.60;;;;;;;5.61;100.00;152802.72;5005874;28;20829;-77
2024/01/02 02:08:23;;;;;;;1.10;0.63;;;;;;;5.61;100.00;152802.72;5017152;28;20460;-78
2024/01/02 02:10:50;;;;;;;1.67;0.60;;;;;;;5.63;100.00;152807.84;4972018;28;20536;-78
2024/01/02 02:13:17;;;;;;;1.37;0.60;;;;;;;5.60;100.00;152800.09;4985838;28;20489;-77
2024/01/02 02:15:44;;;;;;;1.40;0.63;;;;;;;5.61;100.00;152802.72;5002340;28;20432;-78
2024/01/02 02:18:12;;;;;;;3.00;0.70;;;;;;;5.60;100.00;152798.81;4970741;28;20479;-78
2024/01/02 02:20:38;;;;;;;1.50;0.77;;;;;;;5.62;100.00;152805.25;5015530;28;20453;-78
2024/01/02 02:23:06;;;;;;;1.43;0.83;;;;;;;5.61;100.00;152802.72;4990890;28;20468;-78
2024/01/02 02:25:33;;;;;;;1.83;0.70;;;;;;;5.65;100.00;152813.00;5006055;28;20448;-78
2024/01/02 02:28:00;;;;;;;1.13;0.80;;;;;;;5.66;100.00;152815.59;5002395;28;20464;-78
2024/01/02 02:30:27;;;;;;;1.63;0.83;;;;;;;5.63;100.00;152807.84;4991150;28;20443;-77
2024/01/02 02:32:55;;;;;;;1.43;0.80;;;;;;;5.65;100.00;152813.00;4999539;28;20487;-78
2024/01/02 02:35:21;;;;;;;1.23;0.63;;;;;;;5.67;100.00;152818.16;5007496;28;20460;-78
2024/01/02 02:37:48;;;;;;;1.27;0.60;;;;;;;5.66;100.00;152814.28;4974101;28;20927;-77
2024/01/02 02:40:15;;;;;;;1.63;1.10;;;;;;;5.65;100.00;152813.00;4991368;28;20441;-77
2024/01/02 02:42:42;;;;;;;1.83;0.70;;;;;;;5.67;100.00;152816.84;5001633;28;20457;-77
2024/01/02 02:45:09;;;;;;;1.30;0.80;;;;;;;5.65;100.00;152813.00;4980300;28;20459;-78
2024/01/02 02:47:36;;;;;;;1.73;0.80;;;;;;;5.66;100.00;152815.59;5011175;28;21017;-77
2024/01/02 02:50:02;;;;;;;1.67;1.07;;;;;;;5.68;100.00;152819.44;4989946;28;20591;-78
2024/01/02 02:52:29;;;;;;;1.93;0.70;;;;;;;5.68;100.00;152820.75;4985237;28;20484;-77
2024/01/02 02:54:55;;;;;;;2.00;0.70;;;;;;;5.69;100.00;152823.34;5010483;28;20491;-78
2024/01/02 02:57:23;;;;;;;1.00;0.60;;;;;;;5.69;100.00;152822.03;5005847;28;20487;-78
2024/01/02 02:59:50;;;;;;;1.63;0.67;;;;;;;5.69;100.00;152823.34;4993918;28;20457;-78
2024/01/02 03:02:17;;;;;;;1.13;0.53;;;;;;;5.70;100.00;152825.88;4994422;28;20997;-77
2024/01/02 03:04:44;;;;;;;2.03;0.90;;;;;;;5.69;100.00;152823.34;4993034;28;20455;-78
2024/01/02 03:07:11;;;;;;;0.97;0.63;;;;;;;5.72;100.00;152831.03;5007565;28;20915;-78
2024/01/02 03:09:37;;;;;;;2.03;0.90;;;;;;;5.71;100.00;152828.47;4988897;28;20464;-78
2024/01/02 03:12:05;;;;;;;1.27;0.50;;;;;;;5.73;100.00;152833.63;4969492;28;20488;-78
2024/01/02 03:14:33;;;;;;;2.07;0.83;;;;;;;5.73;100.00;152832.34;5005846;28;20463;-78
2024/01/02 03:16:59;;;;;;;2.60;1.80;;;;;;;5.72;100.00;152831.03;4986793;28;20449;-77
2024/01/02 03:19:26;;;;;;;3.03;2.30;;;;;;;5.73;100.00;152832.34;4996774;28;20480;-77
2024/01/02 03:21:53;;;;;;;1.00;0.70;;;;;;;5.76;100.00;152840.06;4995364;28;20454;-78
2024/01/02 03:24:19;;;;;;;1.00;0.60;;;;;;;5.73;100.00;152833.63;4982853;28;20445;-78
2024/01/02 03:26:46;;;;;;;1.27;0.70;;;;;;;5.72;100.00;152831.03;5007758;28;20460;-77
2024/01/02 03:29:12;;;;;;;1.30;0.73;;;;;;;5.73;100.00;152833.63;5007435;28;20499;-78
2024/01/02 03:31:40;;;;;;;1.27;0.63;;;;;;;5.75;100.00;152838.78;4987930;28;20473;-77
2024/01/02 03:34:07;;;;;;;1.40;0.90;;;;;;;5.77;100.00;152842.69;4972693;28;20441;-77
2024/01/02 03:36:33;;;;;;;2.30;1.50;;;;;;;5.79;100.00;152847.81;4991906;28;20465;-77
2024/01/02 03:39:00;;;;;;;1.33;0.70;;;;;;;5.78;100.00;152845.22;4991386;28;20551;-78
2024/01/02 03:41:27;;;;;;;1.13;0.70;;;;;;;5.78;100.00;152845.22;5007752;28;20476;-77
2024/01/02 03:43:53;;;;;;;1.10;0.57;;;;;;;5.77;100.00;152843.94;4990424;28;20449;-77
2024/01/02 03:46:20;;;;;;;0.90;0.60;;;;;;;5.74;100.00;152836.22;5007406;28;20464;-77
2024/01/02 03:48:48;;;;;;;1.00;0.57;;;;;;;5.75;100.00;152838.78;4981721;28;20465;-77
2024/01/02 03:51:14;;;;;;;1.10;0.60;;;;;;;5.74;100.00;152836.22;5007141;28;20531;-77
2024/01/02 03:53:41;;;;;;;1.10;0.40;;;;;;;5.75;100.00;152838.78;4989584;28;20464;-77
2024/01/02 03:56:08;;;;;;;0.90;0.40;;;;;;;5.75;100.00;152838.78;4989158;28;20824;-77
2024/01/02 03:58:36;;;;;;;0.90;0.50;;;;;;;5.76;100.00;152840.06;4987339;28;20445;-77
2024/01/02 04:01:03;;;;;;;0.90;0.40;;;;;;;5.74;100.00;152836.22;5011307;28;20709;-77
2024/01/02 04:03:29;;;;;;;3.93;0.67;;;;;;;5.74;100.00;152836.22;5007757;28;20494;-77
2024/01/02 04:05:57;;;;;;;0.87;0.40;;;;;;;5.74;100.00;152834.94;4994100;28;20468;-77
2024/01/02 04:08:24;;;;;;;1.10;0.50;;;;;;;5.73;100.00;152833.63;5012785;28;20448;-77
2024/01/02 04:10:50;;;;;;;0.90;0.40;;;;;;;5.73;100.00;152833.63;5009437;28;20452;-77
2024/01/02 04:13:17;;;;;;;0.90;0.50;;;;;;;5.74;100.00;152834.94;5010471;28;20479;-77
2024/01/02 04:15:43;;;;;;;0.77;0.30;;;;;;;5.73;100.00;152833.63;4994152;28;20459;-77
2024/01/02 04:18:10;;;;;;;0.83;0.30;;;;;;;5.75;100.00;152838.78;4988733;28;20467;-77
2024/01/02 04:20:36;;;;;;;0.93;0.50;;;;;;;5.75;100.00;152838.78;5005064;28;20540;-77
2024/01/02 04:23:04;;;;;;;0.83;0.40;;;;;;;5.75;100.00;152838.78;5005927;28;20478;-77
2024/01/02 04:25:31;;;;;;;1.20;0.40;;;;;;;5.75;100.00;152838.78;5014453;28;20537;-77
2024/01/02 04:27:58;;;;;;;1.10;0.50;;;;;;;5.73;100.00;152833.63;4966406;28;20567;-77
2024/01/02 04:30:24;;;;;;;1.00;0.50;;;;;;;5.73;100.00;152833.63;5002704;28;20506;-77
2024/01/02 04:32:51;;;;;;;1.27;0.40;;;;;;;5.73;100.00;152833.63;5005228;28;20484;-77
2024/01/02 04:35:18;;;;;;;1.33;0.30;;;;;;;5.75;100.00;152838.78;5010242;28;20469;-77
2024/01/02 04:37:44;;;;;;;0.80;0.33;;;;;;;5.75;100.00;152838.78;5009482;28;20540;-77
2024/01/02 04:40:13;;;;;;;2.23;0.50;;;;;;;5.71;100.00;152828.47;5010292;28;20910;-77
2024/01/02 04:42:39;;;;;;;0.97;0.50;;;;;;;5.69;100.00;152823.34;5003143;28;20451;-77
2024/01/02 04:45:07;;;;;;;0.70;0.30;;;;;;;5.72;100.00;152831.03;5008059;28;21023;-77
2024/01/02 04:47:34;;;;;;;1.40;0.40;;;;;;;5.71;100.00;152828.47;5002419;28;20811;-76
2024/01/02 04:50:01;;;;;;;1.27;0.50;;;;;;;5.70;100.00;152824.59;5009211;28;20456;-77
2024/01/02 04:52:29;;;;;;;0.93;0.40;;;;;;;5.67;100.00;152818.16;4984601;28;20473;-77
2024/01/02 04:54:56;;;;;;;1.70;0.47;;;;;;;5.67;100.00;152816.84;4988395;28;20465;-77
2024/01/02 04:57:24;;;;;;;1.10;0.33;;;;;;;5.63;100.00;152806.56;5009131;28;20459;-76
2024/01/02 04:59:50;;;;;;;0.70;0.30;;;;;;;5.63;100.00;152807.84;4997163;28;20456;-77
2024/01/02 05:02:22;;;;;;;1.10;0.40;;;;;;;5.65;100.00;152813.00;4993492;28;20463;-76
2024/01/02 05:04:49;;;;;;;0.90;0.50;;;;;;;5.65;100.00;152813.00;5008819;28;20790;-77
2024/01/02 05:07:16;;;;;;;0.80;0.30;;;;;;;5.65;100.00;152813.00;5000279;28;20452;-77
2024/01/02 05:09:42;;;;;;;1.00;0.50;;;;;;;5.68;100.00;152819.44;5023737;28;20826;-77
2024/01/02 05:12:09;;;;;;;0.60;0.30;;;;;;;5.65;100.00;152813.00;5023864;28;20567;-77
2024/01/02 05:14:37;;;;;;;0.80;0.40;;;;;;;5.64;100.00;152809.16;5012051;28;20966;-77
2024/01/02 05:17:04;;;;;;;0.70;0.40;;;;;;;5.63;100.00;152806.56;5008670;28;20519;-77
2024/01/02 05:19:31;;;;;;;0.80;0.30;;;;;;;5.62;100.00;152805.25;4998313;28;20452;-77
2024/01/02 05:21:58;;;;;;;1.00;0.40;;;;;;;5.60;100.00;152800.09;4984787;28;20508;-76
2024/01/02 05:24:27;;;;;;;0.80;0.30;;;;;;;5.62;100.00;152803.97;5009549;28;20456;-76
2024/01/02 05:26:54;;;;;;;1.07;0.40;;;;;;;5.63;100.00;152807.84;4972855;28;20515;-77
2024/01/02 05:29:20;;;;;;;0.90;0.40;;;;;;;5.63;100.00;152806.56;4987390;28;20449;-77
2024/01/02 05:31:48;;;;;;;1.10;0.40;;;;;;;5.62;100.00;152805.25;5009319;28;20455;-76
2024/01/02 05:34:15;;;;;;;1.73;0.37;;;;;;;5.63;100.00;152807.84;4989099;28;20530;-77
2024/01/02 05:36:43;;;;;;;0.93;0.40;;;;;;;5.61;100.00;152802.72;5011294;28;20919;-77
2024/01/02 05:39:10;;;;;;;0.80;0.40;;;;;;;5.61;100.00;152802.72;5017838;28;20459;-77
2024/01/02 05:41:36;;;;;;;1.73;0.50;;;;;;;5.60;100.00;152800.09;4997305;28;20481;-77
2024/01/02 05:44:03;;;;;;;1.03;0.60;;;;;;;5.58;100.00;152794.97;4954691;28;20460;-77
2024/01/02 05:46:30;;;;;;;0.63;0.30;;;;;;;5.62;100.00;152805.25;4973715;28;20452;-77
2024/01/02 05:48:57;;;;;;;0.80;0.30;;;;;;;5.62;100.00;152805.25;4986960;28;20457;-77
2024/01/02 05:51:24;;;;;;;0.70;0.40;;;;;;;5.61;100.00;152802.72;4989753;28;20485;-77
2024/01/02 05:53:50;;;;;;;0.83;0.37;;;;;;;5.61;100.00;152802.72;4979666;28;20489;-77
2024/01/02 05:56:17;;;;;;;1.17;0.50;;;;;;;5.62;100.00;152803.97;4990259;28;20898;-77
2024/01/02 05:58:44;;;;;;;1.47;0.50;;;;;;;5.66;100.00;152814.28;4989589;28;20445;-77
2024/01/02 06:01:10;;;;;;;1.00;0.60;;;;;;;5.64;100.00;152810.41;4978293;28;20457;-77
2024/01/02 06:03:37;;;;;;;0.90;0.50;;;;;;;5.66;100.00;152814.28;4972613;28;20565;-77
2024/01/02 06:06:06;;;;;;;0.73;0.33;;;;;;;5.68;100.00;152820.75;4987188;28;20458;-77
2024/01/02 06:08:32;;;;;;;1.20;0.50;;;;;;;5.67;100.00;152816.84;4967299;28;20449;-77
2024/01/02 06:10:59;;;;;;;0.80;0.40;;;;;;;5.68;100.00;152820.75;4977236;28;20454;-77
2024/01/02 06:13:26;;;;;;;2.13;0.53;;;;;;;5.69;100.00;152823.34;4975535;28;20576;-77
2024/01/02 06:15:53;;;;;;;0.90;0.40;;;;;;;5.70;100.00;152824.59;4981878;28;20456;-77
2024/01/02 06:18:19;;;;;;;0.97;0.43;;;;;;;5.70;100.00;152825.88;4954829;28;20768;-77
2024/01/02 06:20:46;;;;;;;1.63;0.33;;;;;;;5.68;100.00;152820.75;4980431;28;20463;-77
2024/01/02 06:23:14;;;;;;;0.80;0.40;;;;;;;5.69;100.00;152822.03;4951718;28;21126;-77
2024/01/02 06:25:40;;;;;;;0.80;0.37;;;;;;;5.72;100.00;152831.03;4979875;28;20454;-77
2024/01/02 06:28:07;;;;;;;2.00;0.33;;;;;;;5.73;100.00;152833.63;4975170;28;20459;-77
2024/01/02 06:30:33;;;;;;;1.33;0.67;;;;;;;5.72;100.00;152831.03;4980560;28;20465;-77
2024/01/02 06:33:00;;;;;;;0.90;0.40;;;;;;;5.74;100.00;152834.94;4967835;28;20496;-77
2024/01/02 06:35:27;;;;;;;0.80;0.50;;;;;;;5.73;100.00;152833.63;4979532;28;20544;-77
2024/01/02 06:37:53;;;;;;;0.90;0.47;;;;;;;5.77;100.00;152843.94;4972588;28;20462;-77
2024/01/02 06:40:21;;;;;;;1.33;0.60;;;;;;;5.79;100.00;152847.81;4978365;28;20466;-77
2024/01/02 06:42:48;;;;;;;0.93;0.30;;;;;;;5.79;100.00;152849.13;4996524;28;20544;-77
2024/01/02 06:45:14;;;;;;;0.87;0.40;;;;;;;5.80;100.00;152851.66;4998587;28;20829;-77
2024/01/02 06:47:41;;;;;;;1.00;0.60;;;;;;;5.79;100.00;152849.13;4977875;28;20464;-77
2024/01/02 06:50:08;;;;;;;1.90;1.03;;;;;;;5.81;100.00;152852.97;4999325;28;21085;-77
2024/01/02 06:52:35;;;;;;;3.67;2.00;;;;;;;5.83;100.00;152858.13;4995605;28;20495;-77
2024/01/02 06:55:03;;;;;;;1.87;0.80;;;;;;;5.84;100.00;152862.00;4979665;28;20453;-77
2024/01/02 06:57:32;;;;;;;1.10;0.70;;;;;;;5.86;100.00;152867.22;4994921;28;20480;-77
2024/01/02 06:59:58;;;;;;;1.10;0.50;;;;;;;5.87;100.00;152868.50;4982271;28;20445;-77
2024/01/02 07:02:25;;;;;;;0.97;0.60;;;;;;;5.87;100.00;152869.81;4995828;28;20547;-77
2024/01/02 07:04:51;;;;;;;0.80;0.50;;;;;;;5.90;100.00;152876.25;4982025;28;20984;-77
2024/01/02 07:07:18;;;;;;;0.77;0.40;;;;;;;5.91;100.00;152878.81;4996946;28;20461;-77
2024/01/02 07:09:44;;;;;;;0.97;0.50;;;;;;;5.88;100.00;152872.34;4995482;28;20547;-77
2024/01/02 07:12:11;;;;;;;1.20;0.50;;;;;;;5.90;100.00;152877.56;4979362;28;20464;-77
2024/01/02 07:14:42;;;;;;;1.00;0.53;;;;;;;5.92;100.00;152882.69;4997020;28;20488;-76
2024/01/02 07:17:08;;;;;;;1.17;0.77;;;;;;;5.92;100.00;152882.69;4977495;28;20460;-77
2024/01/02 07:19:35;;;;;;;2.90;0.70;;;;;;;5.94;100.00;152886.56;4996046;28;20484;-77
2024/01/02 07:22:02;;;;;;;0.90;0.60;;;;;;;5.94;100.00;152887.84;4992383;28;20487;-76
2024/01/02 07:24:31;;;;;;;0.80;0.40;;;;;;;5.96;100.00;152891.69;4995683;28;20535;-76
2024/01/02 07:26:57;;;;;;;0.80;0.50;;;;;;;5.96;100.00;152893.00;4995041;28;20481;-76
2024/01/02 07:29:24;;;;;;;0.80;0.47;;;;;;;5.97;100.00;152895.59;4998364;28;20958;-76
2024/01/02 07:31:52;;;;;;;0.90;0.40;;;;;;;5.98;100.00;152898.16;4997006;28;20464;-76
2024/01/02 07:34:18;;;;;;;1.80;0.60;;;;;;;5.97;100.00;152895.59;4983462;28;20567;-76
2024/01/02 07:36:45;;;;;;;1.33;0.50;;;;;;;6.00;100.00;152903.34;4979426;28;20472;-76
2024/01/02 07:39:11;;;;;;;1.10;0.60;;;;;;;6.03;100.00;152911.09;4975516;28;20456;-76
2024/01/02 07:41:39;;;;;;;0.90;0.40;;;;;;;6.06;100.00;152918.78;4991752;28;20753;-76
2024/01/02 07:44:07;;;;;;;0.80;0.40;;;;;;;6.08;100.00;152923.97;4996861;28;20457;-76
2024/01/02 07:46:33;;;;;;;0.80;0.40;;;;;;;6.09;100.00;152926.53;4981227;28;20448;-76
2024/01/02 07:49:01;;;;;;;0.80;0.40;;;;;;;6.10;100.00;152929.13;4999778;28;20752;-76
2024/01/02 07:51:28;;;;;;;0.70;0.40;;;;;;;6.14;100.00;152939.44;4991404;28;21005;-76
2024/01/02 07:53:54;;;;;;;1.03;0.60;;;;;;;6.16;100.00;152942.03;4994979;28;20499;-76
2024/01/02 07:56:22;;;;;;;1.80;0.73;;;;;;;6.16;100.00;152942.03;4990442;28;20475;-76
2024/01/02 07:58:49;;;;;;;1.77;0.60;;;;;;;6.16;100.00;152943.31;4985074;28;20461;-76
2024/01/02 08:01:17;;;;;;;1.50;0.40;;;;;;;6.18;100.00;152948.47;4983723;28;20459;-76
2024/01/02 08:04:06;;;;;;;1.37;0.60;;;;;;;6.15;100.00;152940.72;4983390;28;20457;-76
2024/01/02 08:06:33;;;;;;;1.00;0.50;;;;;;;6.20;100.00;152952.31;4996054;28;20484;-76
2024/01/02 08:09:00;;;;;;;1.90;0.50;;;;;;;6.20;100.00;152952.31;4991239;28;20460;-76
2024/01/02 08:11:27;;;;;;;1.10;0.50;;;;;;;6.23;100.00;152960.06;4996887;28;20950;-76
2024/01/02 08:13:54;;;;;;;1.20;0.60;;;;;;;6.23;100.00;152960.06;4993654;28;20509;-76
2024/01/02 08:16:21;;;;;;;1.00;0.60;;;;;;;6.24;100.00;152962.66;4984164;28;20841;-76
2024/01/02 08:18:48;;;;;;;0.97;0.60;;;;;;;6.24;100.00;152963.97;4995084;28;20472;-76
2024/01/02 08:21:16;;;;;;;1.90;0.60;;;;;;;6.26;100.00;152967.81;4997714;28;20548;-76
2024/01/02 08:23:43;;;;;;;1.30;0.77;;;;;;;6.26;100.00;152969.13;4996449;28;20495;-76
2024/01/02 08:26:13;;;;;;;2.40;0.77;;;;;;;6.27;100.00;152970.41;4997074;28;20464;-76
2024/01/02 08:28:39;;;;;;;0.73;0.40;;;;;;;6.29;100.00;152975.56;4997804;28;20514;-76
2024/01/02 08:31:06;;;;;;;1.10;0.50;;;;;;;6.32;100.00;152984.63;4982774;28;20510;-76
2024/01/02 08:33:32;;;;;;;0.90;0.40;;;;;;;6.31;100.00;152980.72;4985584;28;20523;-77
2024/01/02 08:35:59;;;;;;;1.83;0.50;;;;;;;6.31;100.00;152982.03;4994685;28;20460;-76
2024/01/02 08:38:27;;;;;;;1.40;0.70;;;;;;;6.31;100.00;152980.72;4995332;28;20544;-76
2024/01/02 08:40:54;;;;;;;1.03;0.60;;;;;;;6.32;100.00;152983.31;4993319;28;20480;-76
2024/01/02 08:43:20;;;;;;;1.10;0.50;;;;;;;6.33;100.00;152985.91;4995387;28;20453;-77
2024/01/02 08:45:47;;;;;;;1.10;0.53;;;;;;;6.34;100.00;152988.47;4995177;28;20464;-77
2024/01/02 08:48:14;;;;;;;0.97;0.60;;;;;;;6.35;100.00;152991.06;4996933;28;20455;-76
2024/01/02 08:50:42;;;;;;;1.40;0.70;;;;;;;6.34;100.00;152988.47;4995134;28;20446;-76
2024/01/02 08:53:09;;;;;;;0.90;0.53;;;;;;;6.37;100.00;152996.22;4995154;28;20544;-77
2024/01/02 08:55:37;;;;;;;0.87;0.47;;;;;;;6.37;100.00;152996.22;4984287;28;20461;-77
2024/01/02 08:58:04;;;;;;;2.70;0.80;;;;;;;6.39;100.00;153001.38;4995859;28;20457;-77
2024/01/02 09:00:31;;;;;;;0.80;0.50;;;;;;;6.41;100.00;153006.53;4981062;28;20878;-77
2024/01/02 09:02:58;;;;;;;0.90;0.50;;;;;;;6.44;100.00;153014.28;4994441;28;20464;-77
2024/01/02 09:05:26;;;;;;;0.93;0.50;;;;;;;6.43;100.00;153013.03;4999422;28;20995;-77
2024/01/02 09:07:53;;;;;;;1.03;0.50;;;;;;;6.45;100.00;153016.88;4993432;28;20475;-77
2024/01/02 09:10:19;;;;;;;1.00;0.50;;;;;;;6.46;100.00;153019.47;4997059;28;20463;-77
2024/01/02 09:12:47;;;;;;;0.90;0.50;;;;;;;6.46;100.00;153019.47;4996379;28;21241;-77
2024/01/02 09:15:15;;;;;;;0.90;0.47;;;;;;;6.50;100.00;153029.75;5001098;28;20482;-78
2024/01/02 09:17:41;;;;;;;0.90;0.40;;;;;;;6.52;100.00;153034.91;4995370;28;20445;-76
2024/01/02 09:20:11;;;;;;;1.23;0.70;;;;;;;6.53;100.00;153037.50;4987684;28;20468;-76
2024/01/02 09:22:37;;;;;;;0.90;0.50;;;;;;;6.55;100.00;153043.97;4988389;28;20461;-76
2024/01/02 09:25:05;;;;;;;0.93;0.40;;;;;;;6.60;100.00;153055.56;4999595;28;20574;-75
2024/01/02 09:27:33;;;;;;;1.10;0.60;;;;;;;6.62;100.00;153062.03;4987776;28;20457;-75
2024/01/02 09:30:01;;;;;;;1.53;0.77;;;;;;;6.69;100.00;153078.81;4997724;28;20536;-76
2024/01/02 09:32:28;;;;;;;2.40;0.60;;;;;;;6.74;100.00;153093.03;4986893;28;20463;-76
2024/01/02 09:34:55;;;;;;;0.90;0.40;;;;;;;6.78;100.00;153102.03;4999627;28;20512;-78
2024/01/02 09:37:22;;;;;;;0.80;0.40;;;;;;;6.87;100.00;153125.28;5003069;28;21167;-77
2024/01/02 09:39:48;;;;;;;0.80;0.40;;;;;;;6.89;100.00;153129.13;5002639;28;20454;-77
2024/01/02 09:42:23;;;;;;;0.90;0.50;;;;;;;6.94;100.00;153143.34;4997993;28;20868;-77
2024/01/02 09:44:56;;;;;;;0.70;0.30;;;;;;;6.98;100.00;153153.69;5000006;28;20506;-78
2024/01/02 09:47:37;;;;;;;0.97;0.40;;;;;;;6.99;100.00;153156.25;4997395;28;20504;-77
2024/01/02 09:50:10;;;;;;;0.80;0.50;;;;;;;7.01;100.00;153160.13;4998717;28;20448;-78
2024/01/02 09:52:51;;;;;;;0.97;0.50;;;;;;;7.04;100.00;153169.16;4997062;28;20454;-78
2024/01/02 09:55:22;;;;;;;0.70;0.30;;;;;;;7.09;100.00;153182.09;4995215;28;20484;-77
2024/01/02 09:57:59;;;;;;;0.70;0.30;;;;;;;7.07;100.00;153176.91;4997599;28;20453;-77
2024/01/02 10:00:32;;;;;;;2.70;0.40;;;;;;;7.12;100.00;153189.81;4992992;28;21392;-77
2024/01/02 10:03:13;;;;;;;0.90;0.60;;;;;;;7.15;100.00;153197.56;4996522;28;20536;-77
2024/01/02 10:05:57;;;;;;;0.80;0.40;;;;;;;7.19;100.00;153206.63;4996585;28;20963;-77
2024/01/02 10:08:43;;;;;;;1.00;0.53;;;;;;;7.24;100.00;153220.81;4983683;28;20540;-78
2024/01/02 10:11:20;;;;;;;0.70;0.30;;;;;;;7.24;100.00;153220.81;4998078;28;20492;-77
2024/01/02 10:13:49;;;;;;;0.80;0.50;;;;;;;7.29;100.00;153232.44;4994122;28;20475;-77
2024/01/02 10:16:23;;;;;;;0.90;0.30;;;;;;;7.34;100.00;153245.34;4998541;28;20444;-77
2024/01/02 10:19:00;;;;;;;0.80;0.50;;;;;;;7.39;100.00;153257.00;4997546;28;20449;-78
2024/01/02 10:21:30;;;;;;;0.80;0.40;;;;;;;7.42;100.00;153264.69;4999348;28;20456;-76
2024/01/02 10:24:05;;;;;;;0.80;0.30;;;;;;;7.43;100.00;153268.59;4980205;28;20905;-78
2024/01/02 10:26:33;;;;;;;4.10;0.43;;;;;;;7.45;100.00;153272.47;4987064;28;20507;-77
2024/01/02 10:29:04;;;;;;;0.80;0.40;;;;;;;7.47;100.00;153277.63;4997955;28;20468;-78
2024/01/02 10:31:37;;;;;;;0.83;0.40;;;;;;;7.52;100.00;153291.81;4997902;28;20804;-78
2024/01/02 10:34:12;;;;;;;0.90;0.40;;;;;;;7.53;100.00;153293.13;4995184;28;20504;-77
2024/01/02 10:36:41;;;;;;;1.00;0.50;;;;;;;7.55;100.00;153299.59;4997970;28;20492;-78
2024/01/02 10:39:17;;;;;;;1.27;0.80;;;;;;;7.53;100.00;153293.13;4997419;28;20457;-78
2024/01/02 10:41:52;;;;;;;1.20;0.60;;;;;;;7.54;100.00;153295.72;4996995;28;20476;-75
2024/01/02 10:44:23;;;;;;;1.10;0.50;;;;;;;7.53;100.00;153293.13;4981797;28;20448;-78
2024/01/02 10:46:56;;;;;;;1.10;0.60;;;;;;;7.56;100.00;153302.19;5000115;28;20612;-77
2024/01/02 10:49:32;;;;;;;1.47;0.50;;;;;;;7.59;100.00;153308.63;4983009;28;20983;-77
2024/01/02 10:52:03;;;;;;;1.17;0.67;;;;;;;7.59;100.00;153308.63;5000032;28;20459;-77
2024/01/02 10:54:36;;;;;;;1.30;0.60;;;;;;;7.57;100.00;153304.72;4985457;28;20572;-76
2024/01/02 10:57:05;;;;;;;1.20;0.50;;;;;;;7.58;100.00;153306.03;4983330;28;20576;-78
2024/01/02 10:59:43;;;;;;;1.03;0.60;;;;;;;7.59;100.00;153308.63;4985517;28;20989;-78
2024/01/02 11:02:21;;;;;;;1.17;0.60;;;;;;;7.61;100.00;153315.09;5000177;28;20470;-78
2024/01/02 11:04:56;;;;;;;1.27;0.70;;;;;;;7.64;100.00;153321.56;4996033;28;20468;-77
2024/01/02 11:07:27;;;;;;;1.70;0.90;;;;;;;7.66;100.00;153328.00;4984768;28;20457;-75
2024/01/02 11:10:02;;;;;;;1.20;0.60;;;;;;;7.70;100.00;153338.38;4983132;28;20557;-75
2024/01/02 11:12:35;;;;;;;0.93;0.80;;;;;;;7.74;100.00;153347.38;4986216;28;20452;-78
2024/01/02 11:15:03;;;;;;;1.17;0.53;;;;;;;7.78;100.00;153357.72;4999931;28;20492;-78
2024/01/02 11:17:30;;;;;;;0.80;0.40;;;;;;;7.79;100.00;153361.59;4994597;28;20456;-78
2024/01/02 11:20:05;;;;;;;1.40;0.60;;;;;;;7.82;100.00;153368.03;4995602;28;20477;-77
2024/01/02 11:22:35;;;;;;;1.20;0.60;;;;;;;7.84;100.00;153374.50;4969097;28;20466;-78
2024/01/02 11:25:04;;;;;;;1.10;0.70;;;;;;;7.84;100.00;153374.50;4986242;28;20441;-77
2024/01/02 11:27:31;;;;;;;0.90;0.50;;;;;;;7.88;100.00;153383.56;4995651;28;20572;-77